createdAt,value
2019-05-05T00:01:39.133Z,3.20
2019-05-05T00:07:36.013Z,2.77
2019-05-05T00:13:35.162Z,3.05
2019-05-05T00:19:10.228Z,3.10
2019-05-05T00:25:07.585Z,2.45
2019-05-05T00:31:04.875Z,2.30
2019-05-05T00:37:04.713Z,2.72
2019-05-05T00:43:01.182Z,2.83
2019-05-05T00:49:00.433Z,2.87
2019-05-05T00:54:57.621Z,2.85
2019-05-05T01:00:47.069Z,2.77
2019-05-05T01:06:45.669Z,2.50
2019-05-05T01:12:42.531Z,2.60
2019-05-05T01:18:39.723Z,2.58
2019-05-05T01:24:39.661Z,3.40
2019-05-05T01:30:38.458Z,3.35
2019-05-05T01:36:49.714Z,2.67
2019-05-05T01:42:59.735Z,3.15
2019-05-05T01:48:56.940Z,2.80
2019-05-05T01:54:54.950Z,2.80
2019-05-05T02:00:40.892Z,3.50
2019-05-05T02:06:38.489Z,3.33
2019-05-05T02:12:36.542Z,3.60
2019-05-05T02:18:34.540Z,3.60
2019-05-05T02:24:32.492Z,3.70
2019-05-05T02:30:35.904Z,3.02
2019-05-05T02:36:37.450Z,3.27
2019-05-05T02:42:36.030Z,3.05
2019-05-05T02:48:45.633Z,2.85
2019-05-05T02:54:44.226Z,3.22
2019-05-05T03:00:25.836Z,5.00
2019-05-05T03:06:35.427Z,6.10
2019-05-05T03:12:46.367Z,6.00
2019-05-05T03:18:56.026Z,5.10
2019-05-05T03:25:06.330Z,4.03
2019-05-05T03:31:16.396Z,3.27
2019-05-05T03:37:14.742Z,3.80
2019-05-05T03:43:25.755Z,4.92
2019-05-05T03:49:24.338Z,5.90
2019-05-05T03:55:25.062Z,5.12
2019-05-05T04:05:08.800Z,4.85
2019-05-05T04:10:54.660Z,4.35
2019-05-05T04:17:05.134Z,4.08
2019-05-05T04:22:38.103Z,4.72
2019-05-05T04:28:35.519Z,4.28
2019-05-05T04:34:34.644Z,4.00
2019-05-05T04:40:31.816Z,5.22
2019-05-05T04:46:29.347Z,5.37
2019-05-05T04:52:30.632Z,4.75
2019-05-05T04:54:59.491Z,4.50
2019-05-05T04:57:28.015Z,4.08
2019-05-05T04:59:56.657Z,3.87
2019-05-05T05:02:29.752Z,3.83
2019-05-05T05:05:00.050Z,3.98
2019-05-05T05:07:28.607Z,4.55
2019-05-05T05:10:00.130Z,4.28
2019-05-05T05:12:28.859Z,4.80
2019-05-05T05:14:57.513Z,4.40
2019-05-05T05:17:27.659Z,4.65
2019-05-05T05:19:57.161Z,4.12
2019-05-05T05:22:25.825Z,3.95
2019-05-05T05:24:54.465Z,4.25
2019-05-05T05:27:24.510Z,4.28
2019-05-05T05:29:56.130Z,3.90
2019-05-05T05:32:24.845Z,4.33
2019-05-05T05:34:54.304Z,3.85
2019-05-05T05:37:24.039Z,4.28
2019-05-05T05:39:54.551Z,4.22
2019-05-05T05:42:24.170Z,4.05
2019-05-05T05:45:11.161Z,3.87
2019-05-05T05:47:56.885Z,4.12
2019-05-05T05:50:27.185Z,3.85
2019-05-05T05:52:55.815Z,4.00
2019-05-05T05:55:24.442Z,3.80
2019-05-05T05:57:54.157Z,3.72
2019-05-05T06:00:23.770Z,3.65
2019-05-05T06:02:54.503Z,3.45
2019-05-05T06:05:26.228Z,3.80
2019-05-05T06:07:54.778Z,3.67
2019-05-05T06:10:27.190Z,3.70
2019-05-05T06:12:54.854Z,3.30
2019-05-05T06:15:24.432Z,2.92
2019-05-05T06:17:53.942Z,4.03
2019-05-05T06:20:23.912Z,3.85
2019-05-05T06:22:53.566Z,3.60
2019-05-05T06:25:26.266Z,3.67
2019-05-05T06:27:54.009Z,3.30
2019-05-05T06:30:24.368Z,3.72
2019-05-05T06:32:54.450Z,5.25
2019-05-05T06:35:24.457Z,3.83
2019-05-05T06:37:54.236Z,3.47
2019-05-05T06:40:44.281Z,3.80
2019-05-05T06:43:19.752Z,4.97
2019-05-05T06:46:14.644Z,4.42
2019-05-05T06:48:43.894Z,4.67
2019-05-05T06:51:14.080Z,4.40
2019-05-05T06:53:43.536Z,4.15
2019-05-05T06:56:14.396Z,4.40
2019-05-05T06:58:44.254Z,5.65
2019-05-05T07:01:14.272Z,34.15
2019-05-05T07:03:46.113Z,8.10
2019-05-05T07:06:14.780Z,4.15
2019-05-05T07:08:44.825Z,4.83
2019-05-05T07:11:14.491Z,5.35
2019-05-05T07:13:44.296Z,9.25
2019-05-05T07:16:14.936Z,12.33
2019-05-05T07:18:44.552Z,6.28
2019-05-05T07:21:14.205Z,5.45
2019-05-05T07:23:44.589Z,4.55
2019-05-05T07:26:14.378Z,4.42
2019-05-05T07:28:44.838Z,4.47
2019-05-05T07:31:14.294Z,5.95
2019-05-05T07:33:43.828Z,6.00
2019-05-05T07:36:16.852Z,5.50
2019-05-05T07:38:48.357Z,5.15
2019-05-05T07:41:16.857Z,5.45
2019-05-05T07:43:45.348Z,6.35
2019-05-05T07:46:13.802Z,6.22
2019-05-05T07:48:44.508Z,7.10
2019-05-05T07:54:55.097Z,12.93
2019-05-05T08:01:04.796Z,4.92
2019-05-05T08:10:17.144Z,4.90
2019-05-05T08:15:56.880Z,5.15
2019-05-05T08:21:43.755Z,4.95
2019-05-05T08:27:48.574Z,7.75
2019-05-05T08:33:45.825Z,5.25
2019-05-05T08:39:55.326Z,4.60
2019-05-05T08:45:52.812Z,5.28
2019-05-05T08:51:50.501Z,4.70
2019-05-05T08:57:48.692Z,4.90
2019-05-05T09:03:58.198Z,5.58
2019-05-05T09:09:55.369Z,5.83
2019-05-05T09:15:54.245Z,7.20
2019-05-05T09:22:06.680Z,5.15
2019-05-05T09:28:16.493Z,5.58
2019-05-05T09:34:14.621Z,5.42
2019-05-05T09:40:13.887Z,4.42
2019-05-05T09:46:10.838Z,5.85
2019-05-05T09:52:07.903Z,8.68
2019-05-05T09:58:04.844Z,5.10
2019-05-05T10:04:09.706Z,6.15
2019-05-05T10:09:43.781Z,4.28
2019-05-05T10:21:25.285Z,5.35
2019-05-05T10:26:58.839Z,4.30
2019-05-05T10:32:55.659Z,3.72
2019-05-05T10:39:08.278Z,24.87
2019-05-05T10:45:06.813Z,16.97
2019-05-05T10:51:04.341Z,8.03
2019-05-05T10:57:04.191Z,10.43
2019-05-05T11:03:03.643Z,13.10
2019-05-05T11:09:01.318Z,15.25
2019-05-05T11:14:46.468Z,14.25
2019-05-05T11:20:44.788Z,16.57
2019-05-05T11:26:42.103Z,10.72
2019-05-05T11:32:57.284Z,7.15
2019-05-05T11:38:57.425Z,9.33
2019-05-05T11:44:54.662Z,8.15
2019-05-05T11:50:54.044Z,9.43
2019-05-05T11:56:54.798Z,5.22
2019-05-05T12:02:55.245Z,5.17
2019-05-05T12:08:52.078Z,3.87
2019-05-05T12:11:20.569Z,3.35
2019-05-05T12:16:43.835Z,4.20
2019-05-05T12:22:53.891Z,3.85
2019-05-05T12:28:44.033Z,6.75
2019-05-05T12:34:53.907Z,6.70
2019-05-05T12:40:53.351Z,3.35
2019-05-05T12:47:10.479Z,4.33
2019-05-05T12:53:21.157Z,4.10
2019-05-05T12:59:30.603Z,1.70
2019-05-05T13:05:39.749Z,1.80
2019-05-05T13:15:18.404Z,2.75
2019-05-05T13:21:17.398Z,5.17
2019-05-05T13:27:19.712Z,1.80
2019-05-05T13:33:29.434Z,3.10
2019-05-05T13:39:39.069Z,5.45
2019-05-05T13:45:40.391Z,5.10
2019-05-05T13:51:50.240Z,1.52
2019-05-05T13:57:47.304Z,3.40
2019-05-05T14:03:45.001Z,2.70
2019-05-05T14:09:44.030Z,2.30
2019-05-05T14:15:41.171Z,2.92
2019-05-05T14:21:38.819Z,18.73
2019-05-05T14:27:36.061Z,2.33
2019-05-05T14:33:10.925Z,2.20
2019-05-05T14:39:10.035Z,2.25
2019-05-05T14:45:06.968Z,2.50
2019-05-05T14:51:04.021Z,1.90
2019-05-05T14:57:00.961Z,2.20
2019-05-05T15:02:58.221Z,1.75
2019-05-05T15:09:03.923Z,2.10
2019-05-05T15:15:00.914Z,2.00
2019-05-05T15:20:46.072Z,2.22
2019-05-05T15:26:51.885Z,1.92
2019-05-05T15:32:43.686Z,2.85
2019-05-05T15:38:41.249Z,3.33
2019-05-05T15:44:38.630Z,2.95
2019-05-05T15:50:35.394Z,3.40
2019-05-05T15:56:34.056Z,8.53
2019-05-05T16:02:32.203Z,5.80
2019-05-05T16:08:28.888Z,10.05
2019-05-05T16:14:26.350Z,4.87
2019-05-05T16:17:06.525Z,8.00
2019-05-05T16:23:20.784Z,13.05
2019-05-05T16:29:30.714Z,10.53
2019-05-05T16:35:28.084Z,4.10
2019-05-05T16:41:29.699Z,7.00
2019-05-05T16:47:34.420Z,9.28
2019-05-05T16:53:43.050Z,3.90
2019-05-05T16:59:46.442Z,14.53
2019-05-05T17:05:50.058Z,16.65
2019-05-05T17:11:46.112Z,13.45
2019-05-05T17:17:36.721Z,4.20
2019-05-05T17:23:39.629Z,30.30
2019-05-05T17:29:49.047Z,9.08
2019-05-05T17:35:58.247Z,4.87
2019-05-05T17:42:27.391Z,4.40
2019-05-05T17:48:29.227Z,4.53
2019-05-05T17:51:15.876Z,4.00
2019-05-05T17:57:25.044Z,4.70
2019-05-05T18:03:46.195Z,12.40
2019-05-05T18:09:57.447Z,9.20
2019-05-05T18:15:56.324Z,11.88
2019-05-05T18:21:56.641Z,16.10
2019-05-05T18:28:15.764Z,78.07
2019-05-05T18:34:16.552Z,74.37
2019-05-05T18:40:04.055Z,27.00
2019-05-05T18:46:13.869Z,20.92
2019-05-05T18:52:24.521Z,17.67
2019-05-05T18:58:29.801Z,24.52
2019-05-05T19:04:21.620Z,24.40
2019-05-05T19:10:18.596Z,31.70
2019-05-05T19:16:16.121Z,144.25
2019-05-05T19:22:08.935Z,86.55
2019-05-05T19:28:06.546Z,31.12
2019-05-05T19:34:04.141Z,17.23
2019-05-05T19:40:01.737Z,17.57
2019-05-05T19:45:59.274Z,12.68
2019-05-05T19:51:56.786Z,10.08
2019-05-05T19:57:54.154Z,17.57
2019-05-05T20:03:51.549Z,40.78
2019-05-05T20:09:48.426Z,48.68
2019-05-05T20:15:47.705Z,37.20
2019-05-05T20:21:44.970Z,22.15
2019-05-05T20:27:31.394Z,18.17
2019-05-05T20:33:47.084Z,26.20
2019-05-05T20:39:44.181Z,15.45
2019-05-05T20:45:41.410Z,22.02
2019-05-05T20:51:38.957Z,18.95
2019-05-05T20:57:48.517Z,14.85
2019-05-05T21:03:57.849Z,11.73
2019-05-05T21:10:07.521Z,9.65
2019-05-05T21:16:17.266Z,10.90
2019-05-05T21:25:50.910Z,39.53
2019-05-05T21:31:49.333Z,13.00
2019-05-05T21:37:46.511Z,12.58
2019-05-05T21:43:19.716Z,11.93
2019-05-05T21:49:16.697Z,11.83
2019-05-05T21:55:15.703Z,11.80
2019-05-05T22:01:15.195Z,12.65
2019-05-05T22:07:11.952Z,11.20
2019-05-05T22:13:09.254Z,11.48
2019-05-05T22:19:07.660Z,10.32
2019-05-05T22:25:08.504Z,10.93
2019-05-05T22:30:41.071Z,14.43
2019-05-05T22:36:38.302Z,12.88
2019-05-05T22:42:35.387Z,22.17
2019-05-05T22:48:34.492Z,17.17
2019-05-05T22:54:33.488Z,19.60
2019-05-05T23:00:30.235Z,16.73
2019-05-05T23:06:28.493Z,17.75
2019-05-05T23:12:25.329Z,17.10
2019-05-05T23:18:25.718Z,16.52
2019-05-05T23:24:36.671Z,16.85
2019-05-05T23:30:10.131Z,17.15
2019-05-05T23:36:07.089Z,19.50
2019-05-05T23:42:04.829Z,17.90
2019-05-05T23:48:03.559Z,20.25
2019-05-05T23:54:01.046Z,19.45
2019-05-05T23:59:58.688Z,18.85
